Terminal Aerodrome Forecast
Issued by NWS Charleston, SC

Home | Current Version | Previous Version | Text Only | Print | Product List | Glossary On
Versions: 1 2 3 4 5 6 7 8 9 10 11 12 13 14 15 16 17
000
FTUS42 KCHS 312339
TAFSAV
TAF
KSAV 312339Z 0100/0124 VRB03KT P6SM SCT045 BKN150
     FM010900 VRB03KT 6SM BR SCT015 SCT080
     FM011400 VRB05KT P6SM VCSH SCT025 BKN060
     FM011900 16007KT P6SM VCSH SCT030 BKN100=

USA.gov is the U.S. government's official web portal to all federal, state and local government web resources and services.